Time;durP1;ratioP1;P1;durP2;ratioP2;P2;SDS_P1;SDS_P2;PMS_P1;PMS_P2;Temp;Humidity;BMP_temperature;BMP_pressure;BME280_temperature;BME280_humidity;BME280_pressure;Samples;Min_cycle;Max_cycle;Signal;HPM_P1;HPM_P2
2021/11/15 00:00:34;;;;;;;36.23;29.03;;;7.30;99.90;;;;;;5076818;28;20506;-71
2021/11/15 00:03:01;;;;;;;37.47;31.20;;;7.30;99.90;;;;;;5078692;28;20549;-69
2021/11/15 00:05:28;;;;;;;34.67;30.93;;;7.30;99.90;;;;;;5073923;28;20821;-70
2021/11/15 00:07:55;;;;;;;33.33;29.77;;;7.40;99.90;;;;;;5079523;28;20965;-72
2021/11/15 00:10:23;;;;;;;31.83;28.73;;;7.40;99.90;;;;;;5075087;28;20493;-73
2021/11/15 00:12:52;;;;;;;33.60;30.10;;;7.50;99.90;;;;;;5082693;28;20489;-72
2021/11/15 00:15:20;;;;;;;34.40;30.67;;;7.60;99.90;;;;;;5078359;28;20587;-70
2021/11/15 00:17:49;;;;;;;35.17;31.37;;;7.60;99.90;;;;;;5076333;28;20464;-72
2021/11/15 00:20:17;;;;;;;34.30;30.60;;;7.70;99.90;;;;;;5079229;28;20461;-69
2021/11/15 00:22:45;;;;;;;34.13;30.50;;;7.70;99.90;;;;;;5076818;28;20546;-69
2021/11/15 00:25:13;;;;;;;34.23;30.53;;;7.70;99.90;;;;;;5082291;28;20468;-70
2021/11/15 00:27:40;;;;;;;32.27;28.90;;;7.70;99.90;;;;;;5077837;28;20540;-69
2021/11/15 00:30:09;;;;;;;34.17;30.00;;;7.70;99.90;;;;;;5083656;28;20558;-69
2021/11/15 00:32:37;;;;;;;31.20;28.10;;;7.80;99.90;;;;;;5078144;28;20845;-69
2021/11/15 00:35:06;;;;;;;32.50;28.90;;;7.80;99.90;;;;;;5077574;28;20493;-70
2021/11/15 00:37:33;;;;;;;34.63;30.93;;;7.80;99.90;;;;;;5080519;28;20464;-70
2021/11/15 00:40:00;;;;;;;33.73;29.83;;;7.70;99.90;;;;;;5082851;28;20468;-69
2021/11/15 00:42:27;;;;;;;32.93;29.53;;;7.90;99.90;;;;;;5079041;28;20463;-71
2021/11/15 00:44:54;;;;;;;32.97;29.47;;;7.80;99.90;;;;;;5075842;28;20972;-74
2021/11/15 00:47:21;;;;;;;33.53;30.03;;;7.90;99.90;;;;;;5081006;28;20474;-72
2021/11/15 00:49:49;;;;;;;33.07;29.57;;;7.80;99.90;;;;;;5074247;28;20467;-73
2021/11/15 00:52:17;;;;;;;33.43;29.90;;;7.70;99.90;;;;;;5073628;28;20461;-70
2021/11/15 00:54:44;;;;;;;33.00;29.47;;;7.90;99.90;;;;;;5080289;28;20994;-71
2021/11/15 00:57:11;;;;;;;34.10;29.97;;;7.90;99.90;;;;;;5075085;28;20484;-72
2021/11/15 00:59:39;;;;;;;34.70;30.90;;;7.90;99.90;;;;;;5078099;28;20493;-70
2021/11/15 01:02:06;;;;;;;33.40;29.90;;;7.80;99.90;;;;;;5082201;28;20872;-71
2021/11/15 01:04:33;;;;;;;33.23;29.13;;;7.90;99.90;;;;;;5083928;28;20466;-73
2021/11/15 01:07:01;;;;;;;32.60;29.30;;;7.90;99.90;;;;;;5078495;28;20454;-70
2021/11/15 01:09:31;;;;;;;34.77;29.43;;;7.90;99.90;;;;;;5080484;28;20448;-70
2021/11/15 01:11:58;;;;;;;33.27;29.13;;;7.90;99.90;;;;;;5074980;28;20486;-69
2021/11/15 01:14:25;;;;;;;31.77;27.80;;;7.90;99.90;;;;;;5079216;28;20465;-70
2021/11/15 01:16:52;;;;;;;32.80;28.27;;;7.90;99.90;;;;;;5080638;28;20504;-70
2021/11/15 01:19:20;;;;;;;31.57;28.37;;;8.00;99.90;;;;;;5078203;28;20459;-73
2021/11/15 01:21:48;;;;;;;31.70;28.30;;;8.00;99.90;;;;;;5080310;28;20471;-71
2021/11/15 01:24:15;;;;;;;31.33;27.77;;;8.00;99.90;;;;;;5081675;28;20458;-69
2021/11/15 01:26:43;;;;;;;32.50;29.07;;;8.10;99.90;;;;;;5080748;28;20461;-69
2021/11/15 01:29:11;;;;;;;32.60;27.60;;;8.10;99.90;;;;;;5081133;28;20549;-69
2021/11/15 01:31:38;;;;;;;33.77;29.37;;;8.20;99.90;;;;;;5069001;28;20805;-69
2021/11/15 01:34:06;;;;;;;41.63;30.83;;;8.30;99.90;;;;;;5080899;28;20469;-71
2021/11/15 01:36:33;;;;;;;33.97;30.37;;;8.30;99.90;;;;;;5078630;28;21040;-72
2021/11/15 01:39:00;;;;;;;34.43;30.20;;;8.30;99.90;;;;;;5075001;28;20464;-69
2021/11/15 01:41:27;;;;;;;34.30;29.37;;;8.20;99.90;;;;;;5075128;28;20455;-70
2021/11/15 01:43:55;;;;;;;34.00;30.50;;;8.20;99.90;;;;;;5080847;28;20983;-70
2021/11/15 01:46:22;;;;;;;32.13;28.73;;;8.20;99.90;;;;;;5074350;28;20462;-71
2021/11/15 01:48:49;;;;;;;33.70;29.97;;;8.30;99.90;;;;;;5073546;28;20466;-69
2021/11/15 01:51:16;;;;;;;33.47;29.90;;;8.30;99.90;;;;;;5074233;28;20464;-69
2021/11/15 01:53:45;;;;;;;35.87;30.93;;;8.20;99.90;;;;;;5080211;28;20486;-69
2021/11/15 01:56:12;;;;;;;35.50;31.80;;;8.20;99.90;;;;;;5078914;28;20488;-69
2021/11/15 01:58:39;;;;;;;33.97;29.07;;;8.20;99.90;;;;;;5085707;28;21133;-70
2021/11/15 02:01:07;;;;;;;34.40;30.80;;;8.20;99.90;;;;;;5081866;28;20470;-70
2021/11/15 02:03:34;;;;;;;33.87;30.20;;;8.20;99.90;;;;;;5085741;28;20825;-69
2021/11/15 02:06:02;;;;;;;36.57;30.93;;;8.30;99.90;;;;;;5081081;28;20969;-70
2021/11/15 02:08:30;;;;;;;36.60;32.70;;;8.30;99.90;;;;;;5078218;28;20899;-72
2021/11/15 02:10:57;;;;;;;34.13;30.63;;;8.30;99.90;;;;;;5080687;28;20458;-70
2021/11/15 02:13:26;;;;;;;33.60;27.60;;;8.30;99.90;;;;;;5084299;28;20458;-73
2021/11/15 02:15:53;;;;;;;33.20;29.90;;;8.30;99.90;;;;;;5081379;28;20501;-72
2021/11/15 02:18:22;;;;;;;37.53;30.30;;;8.40;99.90;;;;;;5076824;28;20465;-69
2021/11/15 02:20:54;;;;;;;32.83;29.27;;;8.30;99.90;;;;;;5079744;28;20536;-71
2021/11/15 02:23:23;;;;;;;33.90;30.20;;;8.40;99.90;;;;;;5081195;28;20469;-71
2021/11/15 02:25:53;;;;;;;32.17;29.00;;;8.40;99.90;;;;;;5079355;28;20464;-70
2021/11/15 02:28:24;;;;;;;34.23;30.33;;;8.40;99.90;;;;;;5080071;28;20977;-70
2021/11/15 02:30:51;;;;;;;35.23;30.83;;;8.30;99.90;;;;;;5084434;28;20498;-72
2021/11/15 02:33:18;;;;;;;35.23;30.33;;;8.40;99.90;;;;;;5086748;28;20461;-70
2021/11/15 02:35:45;;;;;;;33.90;30.40;;;8.40;99.90;;;;;;5080798;28;20478;-69
2021/11/15 02:38:13;;;;;;;32.00;28.43;;;8.40;99.90;;;;;;5079301;28;20968;-69
2021/11/15 02:40:41;;;;;;;36.37;29.50;;;8.40;99.90;;;;;;5084302;28;20495;-70
2021/11/15 02:43:08;;;;;;;32.03;28.63;;;8.30;99.90;;;;;;5078354;28;20462;-72
2021/11/15 02:45:35;;;;;;;31.37;28.27;;;8.30;99.90;;;;;;5077335;28;20466;-71
2021/11/15 02:48:02;;;;;;;32.60;29.10;;;8.30;99.90;;;;;;5085466;28;20460;-72
2021/11/15 02:50:31;;;;;;;32.17;28.80;;;8.40;99.90;;;;;;5084355;28;20458;-69
2021/11/15 02:53:00;;;;;;;32.97;29.47;;;8.50;99.90;;;;;;5077379;28;20460;-69
2021/11/15 02:55:30;;;;;;;31.20;28.00;;;8.60;99.90;;;;;;5079156;28;20487;-73
2021/11/15 02:57:58;;;;;;;33.10;29.60;;;8.40;99.90;;;;;;5085908;28;20537;-70
2021/11/15 03:00:29;;;;;;;32.40;29.00;;;8.40;99.90;;;;;;5078224;28;20467;-69
2021/11/15 03:02:58;;;;;;;32.33;28.83;;;8.40;99.90;;;;;;5076375;28;20474;-72
2021/11/15 03:05:27;;;;;;;36.20;28.00;;;8.50;99.90;;;;;;5080202;28;21011;-69
2021/11/15 03:07:56;;;;;;;32.27;29.07;;;8.40;99.90;;;;;;5081252;28;21017;-69
2021/11/15 03:10:23;;;;;;;32.53;29.17;;;8.40;99.90;;;;;;5084485;28;20489;-69
2021/11/15 03:12:53;;;;;;;32.30;28.90;;;8.40;99.90;;;;;;5080107;28;20470;-71
2021/11/15 03:15:25;;;;;;;33.37;28.97;;;8.50;99.90;;;;;;5082406;28;20491;-70
2021/11/15 03:17:58;;;;;;;34.73;29.70;;;8.60;99.90;;;;;;5077333;28;20457;-71
2021/11/15 03:20:27;;;;;;;30.97;27.90;;;8.50;99.90;;;;;;5079164;28;20465;-75
2021/11/15 03:22:54;;;;;;;32.60;29.20;;;8.50;99.90;;;;;;5082740;28;20550;-74
2021/11/15 03:25:25;;;;;;;32.70;29.33;;;8.50;99.90;;;;;;5079140;28;20490;-69
2021/11/15 03:27:54;;;;;;;33.93;30.23;;;8.60;99.90;;;;;;5078912;28;20490;-74
2021/11/15 03:30:23;;;;;;;33.27;29.80;;;8.60;99.90;;;;;;5081593;28;20549;-70
2021/11/15 03:32:51;;;;;;;35.87;28.07;;;8.70;99.90;;;;;;5080999;28;20463;-70
2021/11/15 03:35:19;;;;;;;34.77;29.47;;;8.60;99.90;;;;;;5080218;28;20574;-70
2021/11/15 03:37:46;;;;;;;31.40;28.10;;;8.50;99.90;;;;;;5078605;28;20483;-69
2021/11/15 03:40:15;;;;;;;32.17;28.70;;;8.50;99.90;;;;;;5080198;28;20474;-69
2021/11/15 03:42:44;;;;;;;31.23;27.67;;;8.60;99.90;;;;;;5078030;28;20454;-69
2021/11/15 03:45:14;;;;;;;32.57;29.23;;;8.60;99.90;;;;;;5081790;28;20850;-74
2021/11/15 03:47:41;;;;;;;42.50;29.60;;;8.60;99.90;;;;;;5077447;28;20824;-69
2021/11/15 03:50:09;;;;;;;33.70;28.83;;;8.50;99.90;;;;;;5081863;28;20972;-69
2021/11/15 03:52:37;;;;;;;33.03;29.53;;;8.50;99.90;;;;;;5072305;28;20809;-71
2021/11/15 03:55:04;;;;;;;30.93;27.67;;;8.40;99.90;;;;;;5076981;28;21259;-70
2021/11/15 03:57:31;;;;;;;35.97;30.37;;;8.50;99.90;;;;;;5080203;28;21017;-69
2021/11/15 03:59:58;;;;;;;34.03;28.97;;;8.50;99.90;;;;;;5079907;28;20519;-69
2021/11/15 04:02:30;;;;;;;35.77;29.60;;;8.40;99.90;;;;;;5080526;28;20469;-71
2021/11/15 04:05:03;;;;;;;38.77;30.80;;;8.30;99.90;;;;;;5072271;28;20463;-69
2021/11/15 04:07:34;;;;;;;35.33;31.43;;;8.20;99.90;;;;;;5079359;28;20461;-70
2021/11/15 04:10:05;;;;;;;36.20;29.77;;;8.20;99.90;;;;;;5081606;28;20455;-69
2021/11/15 04:12:32;;;;;;;36.57;30.27;;;8.20;99.90;;;;;;5075147;28;20466;-71
2021/11/15 04:14:58;;;;;;;33.47;29.70;;;8.30;99.90;;;;;;5075487;28;20480;-69
2021/11/15 04:17:27;;;;;;;34.63;29.47;;;8.30;99.90;;;;;;5077538;28;20497;-69
2021/11/15 04:19:54;;;;;;;32.90;29.03;;;8.40;99.90;;;;;;5082777;28;20549;-69
2021/11/15 04:22:21;;;;;;;32.97;29.47;;;8.30;99.90;;;;;;5077267;28;20482;-72
2021/11/15 04:24:48;;;;;;;32.87;29.23;;;8.30;99.90;;;;;;5081152;28;20461;-69
2021/11/15 04:27:15;;;;;;;35.03;29.97;;;8.20;99.90;;;;;;5082522;28;20488;-74
2021/11/15 04:29:42;;;;;;;32.43;28.83;;;8.10;99.90;;;;;;5083190;28;20458;-72
2021/11/15 04:32:10;;;;;;;36.00;29.33;;;8.10;99.90;;;;;;5081929;28;20471;-71
2021/11/15 04:34:39;;;;;;;35.50;30.63;;;8.10;99.90;;;;;;5082773;28;20465;-74
2021/11/15 04:37:06;;;;;;;32.57;27.53;;;8.20;99.90;;;;;;5081494;28;20489;-69
2021/11/15 04:39:34;;;;;;;30.40;27.10;;;8.20;99.90;;;;;;5080662;28;20464;-70
2021/11/15 04:42:01;;;;;;;31.10;26.90;;;8.20;99.90;;;;;;5078193;28;20477;-72
2021/11/15 04:44:28;;;;;;;37.87;28.10;;;8.20;99.90;;;;;;5078957;28;20495;-74
2021/11/15 04:46:55;;;;;;;34.03;28.40;;;8.10;99.90;;;;;;5078799;28;20547;-69
2021/11/15 04:49:22;;;;;;;31.63;27.30;;;8.10;99.90;;;;;;5076926;28;20461;-71
2021/11/15 04:51:51;;;;;;;32.33;28.03;;;8.10;99.90;;;;;;5075399;28;20459;-69
2021/11/15 04:54:19;;;;;;;37.13;28.67;;;8.20;99.90;;;;;;5079309;28;20512;-69
2021/11/15 04:56:47;;;;;;;35.50;28.07;;;8.20;99.90;;;;;;5073359;28;20498;-70
2021/11/15 04:59:14;;;;;;;32.73;27.43;;;8.10;99.90;;;;;;5081932;28;20516;-70
2021/11/15 05:01:42;;;;;;;30.27;27.03;;;8.10;99.90;;;;;;5085156;28;20461;-69
2021/11/15 05:04:09;;;;;;;34.17;27.50;;;8.10;99.90;;;;;;5071198;28;20458;-71
2021/11/15 05:06:36;;;;;;;37.30;28.27;;;8.10;99.90;;;;;;5076907;28;20458;-71
2021/11/15 05:09:05;;;;;;;36.20;29.00;;;8.20;99.90;;;;;;5077371;28;20475;-69
2021/11/15 05:11:32;;;;;;;31.27;27.97;;;8.30;99.90;;;;;;5073805;28;20465;-70
2021/11/15 05:13:58;;;;;;;31.90;27.60;;;8.20;99.90;;;;;;5078565;28;20476;-70
2021/11/15 05:16:25;;;;;;;31.90;28.43;;;8.10;99.90;;;;;;5080689;28;20493;-69
2021/11/15 05:18:52;;;;;;;31.17;26.83;;;8.20;99.90;;;;;;5077032;28;20532;-70
2021/11/15 05:21:19;;;;;;;33.67;29.80;;;8.20;99.90;;;;;;5074835;28;21062;-69
2021/11/15 05:23:46;;;;;;;34.57;27.57;;;8.20;99.90;;;;;;5074735;28;20545;-72
2021/11/15 05:26:15;;;;;;;32.03;28.47;;;8.20;99.90;;;;;;5082805;28;20996;-73
2021/11/15 05:28:42;;;;;;;31.93;28.63;;;8.20;99.90;;;;;;5078160;28;20547;-70
2021/11/15 05:31:09;;;;;;;38.23;29.73;;;8.20;99.90;;;;;;5080180;28;21034;-70
2021/11/15 05:33:36;;;;;;;34.43;29.90;;;8.30;99.90;;;;;;5073454;28;20453;-70
2021/11/15 05:36:03;;;;;;;35.23;28.87;;;8.40;99.90;;;;;;5084077;28;20479;-69
2021/11/15 05:38:29;;;;;;;35.27;28.73;;;8.40;99.90;;;;;;5083425;28;20466;-73
2021/11/15 05:40:57;;;;;;;31.77;27.27;;;8.40;99.90;;;;;;5081867;28;20544;-71
2021/11/15 05:43:26;;;;;;;33.13;27.67;;;8.40;99.90;;;;;;5081663;28;20458;-69
2021/11/15 05:45:54;;;;;;;33.93;27.40;;;8.50;99.90;;;;;;5080073;28;20468;-69
2021/11/15 05:48:21;;;;;;;32.60;28.00;;;8.50;99.90;;;;;;5087063;28;20991;-69
2021/11/15 05:50:49;;;;;;;33.50;29.80;;;8.50;99.90;;;;;;5083277;28;20541;-69
2021/11/15 05:53:16;;;;;;;34.30;28.83;;;8.50;99.90;;;;;;5079184;28;20457;-69
2021/11/15 05:55:43;;;;;;;34.07;28.80;;;8.40;99.90;;;;;;5077662;28;20960;-72
2021/11/15 05:58:11;;;;;;;33.67;28.77;;;8.40;99.90;;;;;;5082531;28;20452;-70
2021/11/15 06:00:41;;;;;;;37.27;30.43;;;8.30;99.90;;;;;;5083927;28;20475;-69
2021/11/15 06:03:08;;;;;;;36.77;30.10;;;8.30;99.90;;;;;;5083404;28;20815;-73
2021/11/15 06:05:36;;;;;;;33.87;30.30;;;8.30;99.90;;;;;;5079858;28;20496;-74
2021/11/15 06:08:03;;;;;;;33.23;28.80;;;8.30;99.90;;;;;;5086039;28;20983;-69
2021/11/15 06:10:30;;;;;;;33.33;29.67;;;8.30;99.90;;;;;;5086499;28;20464;-70
2021/11/15 06:12:57;;;;;;;33.03;29.37;;;8.20;99.90;;;;;;5083958;28;20454;-70
2021/11/15 06:15:24;;;;;;;35.37;30.37;;;8.30;99.90;;;;;;5083951;28;20457;-69
2021/11/15 06:17:53;;;;;;;32.07;28.57;;;8.30;99.90;;;;;;5081786;28;20496;-69
2021/11/15 06:20:21;;;;;;;35.17;28.97;;;8.40;99.90;;;;;;5080573;28;20570;-74
2021/11/15 06:22:48;;;;;;;35.27;30.47;;;8.50;99.90;;;;;;5086056;28;20456;-69
2021/11/15 06:25:16;;;;;;;35.70;29.13;;;8.50;99.90;;;;;;5076481;28;20846;-69
2021/11/15 06:27:45;;;;;;;34.10;28.90;;;8.50;99.90;;;;;;5078982;28;20481;-70
2021/11/15 06:30:15;;;;;;;32.17;28.57;;;8.30;99.90;;;;;;5079491;28;20493;-69
2021/11/15 06:32:42;;;;;;;31.43;28.00;;;8.30;99.90;;;;;;5075888;28;20462;-69
2021/11/15 06:35:12;;;;;;;38.73;30.80;;;8.30;99.90;;;;;;5073545;28;20507;-69
2021/11/15 06:37:39;;;;;;;36.47;31.00;;;8.40;99.90;;;;;;5068291;28;20495;-69
2021/11/15 06:40:08;;;;;;;36.63;31.40;;;8.30;99.90;;;;;;5073649;28;20600;-71
2021/11/15 06:42:36;;;;;;;33.17;29.53;;;8.40;99.90;;;;;;5077985;28;20478;-72
2021/11/15 06:45:03;;;;;;;32.00;28.70;;;8.40;99.90;;;;;;5075665;28;20516;-70
2021/11/15 06:47:33;;;;;;;33.03;29.43;;;8.40;99.90;;;;;;5080530;28;20470;-69
2021/11/15 06:50:01;;;;;;;35.37;29.50;;;8.30;99.90;;;;;;5079293;28;20490;-72
2021/11/15 06:52:30;;;;;;;36.33;30.20;;;8.30;99.90;;;;;;5073921;28;20667;-71
2021/11/15 06:54:57;;;;;;;35.50;30.00;;;8.20;99.90;;;;;;5074223;28;20463;-69
2021/11/15 06:57:26;;;;;;;34.27;30.30;;;8.30;99.90;;;;;;5075894;28;20595;-71
2021/11/15 06:59:54;;;;;;;38.70;29.83;;;8.40;99.90;;;;;;5067048;28;20473;-69
2021/11/15 07:02:22;;;;;;;38.00;30.60;;;8.30;99.90;;;;;;5071472;28;20459;-73
2021/11/15 07:04:50;;;;;;;36.10;31.40;;;8.30;99.90;;;;;;5069965;28;20469;-70
2021/11/15 07:07:17;;;;;;;40.10;31.37;;;8.30;99.90;;;;;;5071346;28;20501;-69
2021/11/15 07:09:47;;;;;;;37.07;31.57;;;8.40;99.90;;;;;;5073552;28;20517;-71
2021/11/15 07:12:14;;;;;;;37.87;30.90;;;8.30;99.90;;;;;;5079265;28;20475;-71
2021/11/15 07:14:42;;;;;;;35.70;30.67;;;8.20;99.90;;;;;;5070595;28;20475;-74
2021/11/15 07:17:09;;;;;;;38.70;29.90;;;8.20;99.90;;;;;;5076085;28;20534;-69
2021/11/15 07:19:37;;;;;;;35.00;30.10;;;8.40;99.90;;;;;;5073634;28;20964;-70
2021/11/15 07:22:04;;;;;;;40.97;32.27;;;8.40;99.90;;;;;;5076480;28;20536;-70
2021/11/15 07:24:31;;;;;;;34.47;30.73;;;8.30;99.90;;;;;;5072242;28;20463;-69
2021/11/15 07:27:00;;;;;;;39.63;30.37;;;8.30;99.90;;;;;;5071593;28;20503;-73
2021/11/15 07:29:26;;;;;;;40.10;32.90;;;8.20;99.90;;;;;;5073929;28;20884;-69
2021/11/15 07:31:54;;;;;;;37.47;30.17;;;8.20;99.90;;;;;;5032677;28;1145986;-69
2021/11/15 07:34:26;;;;;;;35.57;29.90;;;8.10;99.90;;;;;;5075721;28;20670;-71
2021/11/15 07:36:53;;;;;;;39.07;32.20;;;8.10;99.90;;;;;;5075175;28;20584;-69
2021/11/15 07:39:20;;;;;;;35.17;31.00;;;8.20;99.90;;;;;;5076621;28;20592;-69
2021/11/15 07:41:48;;;;;;;34.90;29.03;;;8.30;99.90;;;;;;5079044;28;20466;-69
2021/11/15 07:44:17;;;;;;;35.00;29.87;;;8.40;99.90;;;;;;5075327;28;20967;-73
2021/11/15 07:46:44;;;;;;;39.70;30.03;;;8.40;99.90;;;;;;5077315;28;20558;-69
2021/11/15 07:49:11;;;;;;;39.93;29.90;;;8.30;99.90;;;;;;5072348;28;20469;-69
2021/11/15 07:51:37;;;;;;;37.20;28.60;;;8.30;99.90;;;;;;5068975;28;20469;-70
2021/11/15 07:54:05;;;;;;;38.03;29.37;;;8.30;99.90;;;;;;5078133;28;20471;-69
2021/11/15 07:56:32;;;;;;;36.33;31.90;;;8.20;99.90;;;;;;5074885;28;20636;-73
2021/11/15 07:58:59;;;;;;;36.40;28.43;;;8.30;99.90;;;;;;5075385;28;21104;-74
2021/11/15 08:01:27;;;;;;;38.70;29.87;;;8.30;99.90;;;;;;5070032;28;20458;-70
2021/11/15 08:03:54;;;;;;;35.83;28.47;;;8.40;99.90;;;;;;5069739;28;20461;-69
2021/11/15 08:06:21;;;;;;;35.77;30.00;;;8.30;99.90;;;;;;5077229;28;20476;-69
2021/11/15 08:08:48;;;;;;;35.37;28.73;;;8.10;99.90;;;;;;5071061;28;20498;-69
2021/11/15 08:11:16;;;;;;;33.00;28.23;;;8.20;99.90;;;;;;5070415;28;20458;-73
2021/11/15 08:13:43;;;;;;;32.30;28.80;;;8.30;99.90;;;;;;5067320;28;20470;-69
2021/11/15 08:16:10;;;;;;;33.73;28.20;;;8.30;99.90;;;;;;5075477;28;20477;-69
2021/11/15 08:18:40;;;;;;;30.30;26.90;;;8.40;99.90;;;;;;5078390;28;20493;-69
2021/11/15 08:21:12;;;;;;;32.60;27.90;;;8.40;99.90;;;;;;5079346;28;20466;-72
2021/11/15 08:23:40;;;;;;;38.13;30.87;;;8.40;99.90;;;;;;5073652;28;20739;-70
2021/11/15 08:26:39;;;;;;;35.97;27.87;;;8.50;99.90;;;;;;5074663;28;20463;-71
2021/11/15 08:29:08;;;;;;;44.07;29.70;;;8.30;99.90;;;;;;5075410;28;20840;-71
2021/11/15 08:31:35;;;;;;;34.50;28.40;;;8.20;99.90;;;;;;5073856;28;20479;-73
2021/11/15 08:34:04;;;;;;;40.43;29.30;;;8.40;99.90;;;;;;5077376;28;20461;-70
2021/11/15 08:36:31;;;;;;;36.90;29.47;;;8.20;99.90;;;;;;5075289;28;20459;-70
2021/11/15 08:39:00;;;;;;;38.10;30.77;;;8.20;99.90;;;;;;5075830;28;20466;-72
2021/11/15 08:41:31;;;;;;;42.77;30.87;;;8.30;99.90;;;;;;5074020;28;20471;-72
2021/11/15 08:44:00;;;;;;;39.43;29.40;;;8.30;99.90;;;;;;5071767;28;20465;-69
2021/11/15 08:46:29;;;;;;;56.97;30.77;;;8.20;99.90;;;;;;5072128;28;20826;-70
2021/11/15 08:48:57;;;;;;;41.47;29.77;;;8.00;99.90;;;;;;5078710;28;20465;-70
2021/11/15 08:51:26;;;;;;;40.10;30.30;;;8.00;99.90;;;;;;5078846;28;20456;-73
2021/11/15 08:53:55;;;;;;;42.37;29.17;;;8.00;99.90;;;;;;5077445;28;20548;-70
2021/11/15 08:56:23;;;;;;;34.50;28.30;;;8.00;99.90;;;;;;5071389;28;20825;-71
2021/11/15 08:58:50;;;;;;;40.53;29.77;;;8.10;99.90;;;;;;5069970;28;20490;-69
2021/11/15 09:01:18;;;;;;;45.70;28.60;;;8.10;99.90;;;;;;5066312;28;20466;-69
2021/11/15 09:03:46;;;;;;;41.50;29.13;;;7.90;99.90;;;;;;5075473;28;20837;-69
2021/11/15 09:06:14;;;;;;;34.37;28.10;;;8.00;99.90;;;;;;5073997;28;20527;-73
2021/11/15 09:08:44;;;;;;;34.30;28.03;;;8.00;99.90;;;;;;5070185;28;20471;-72
2021/11/15 09:11:12;;;;;;;37.33;29.50;;;8.10;99.90;;;;;;5071225;28;20465;-69
2021/11/15 09:13:40;;;;;;;33.90;28.00;;;8.10;99.90;;;;;;5070522;28;20474;-69
2021/11/15 09:16:07;;;;;;;33.37;28.33;;;8.00;99.90;;;;;;5074029;28;20889;-69
2021/11/15 09:18:35;;;;;;;38.67;29.47;;;8.00;99.90;;;;;;5077026;28;20550;-70
2021/11/15 09:21:04;;;;;;;31.40;28.10;;;8.10;99.90;;;;;;5070611;28;20470;-73
2021/11/15 09:23:32;;;;;;;36.97;28.30;;;8.00;99.90;;;;;;5073573;28;20464;-72
2021/11/15 09:26:00;;;;;;;35.23;31.30;;;7.90;99.90;;;;;;5071687;28;20964;-71
2021/11/15 09:28:27;;;;;;;34.73;30.70;;;8.00;99.90;;;;;;5068337;28;20531;-69
2021/11/15 09:30:54;;;;;;;36.80;29.60;;;8.00;99.90;;;;;;5077135;28;21000;-69
2021/11/15 09:33:21;;;;;;;38.83;29.67;;;8.00;99.90;;;;;;5078348;28;20979;-69
2021/11/15 09:35:50;;;;;;;37.13;28.33;;;7.90;99.90;;;;;;5077737;28;20903;-71
2021/11/15 09:38:21;;;;;;;39.40;31.97;;;8.10;99.90;;;;;;5082437;28;20482;-68
2021/11/15 09:40:55;;;;;;;38.33;31.27;;;8.10;99.90;;;;;;5081120;28;20475;-70
2021/11/15 09:43:25;;;;;;;37.80;30.70;;;8.20;99.90;;;;;;5072238;22;20490;-69
2021/11/15 09:45:52;;;;;;;44.80;32.30;;;8.10;99.90;;;;;;5054035;28;20464;-69
2021/11/15 09:48:19;;;;;;;38.47;30.97;;;8.10;99.90;;;;;;5056255;28;20466;-69
2021/11/15 09:50:46;;;;;;;37.77;30.17;;;8.10;99.90;;;;;;5058222;28;20466;-69
2021/11/15 09:53:13;;;;;;;41.33;31.30;;;8.20;99.90;;;;;;5058294;28;20513;-70
2021/11/15 09:55:40;;;;;;;40.30;29.77;;;8.10;99.90;;;;;;5059858;28;20504;-69
2021/11/15 09:58:08;;;;;;;45.40;31.73;;;8.10;99.90;;;;;;5060518;28;20503;-71
2021/11/15 10:00:39;;;;;;;38.83;31.20;;;8.20;99.90;;;;;;5056150;28;20893;-69
2021/11/15 10:03:06;;;;;;;40.40;31.73;;;8.20;99.90;;;;;;5059877;28;20539;-71
2021/11/15 10:05:33;;;;;;;40.77;31.20;;;8.20;99.90;;;;;;5058181;28;20548;-69
2021/11/15 10:08:09;;;;;;;38.30;31.07;;;8.20;99.90;;;;;;5059256;28;20567;-69
2021/11/15 10:10:41;;;;;;;38.60;32.80;;;8.20;99.90;;;;;;5060402;28;20469;-69
2021/11/15 10:13:19;;;;;;;38.53;31.83;;;8.20;99.90;;;;;;5060052;28;20868;-69
2021/11/15 10:15:57;;;;;;;45.60;34.23;;;8.10;99.90;;;;;;5054551;28;20457;-69
2021/11/15 10:18:36;;;;;;;36.57;32.37;;;8.30;99.90;;;;;;5055879;28;20508;-70
2021/11/15 10:21:06;;;;;;;37.67;31.17;;;8.30;99.90;;;;;;5059569;28;20476;-72
2021/11/15 10:23:36;;;;;;;39.90;31.17;;;8.30;99.90;;;;;;5059697;28;20470;-69
2021/11/15 10:26:20;;;;;;;47.27;31.63;;;8.40;99.90;;;;;;5055056;28;20463;-70
2021/11/15 10:28:51;;;;;;;44.07;30.93;;;8.20;99.90;;;;;;5078956;28;20560;-74
2021/11/15 10:31:30;;;;;;;39.33;31.10;;;8.20;99.90;;;;;;5076633;28;20570;-69
2021/11/15 10:33:57;;;;;;;33.30;28.43;;;8.20;99.90;;;;;;5071873;28;20464;-69
2021/11/15 10:36:53;;;;;;;44.17;29.47;;;8.10;99.90;;;;;;5071859;28;20466;-69
2021/11/15 10:39:22;;;;;;;41.90;31.93;;;8.20;99.90;;;;;;5072383;28;20489;-68
2021/11/15 10:42:04;;;;;;;37.67;31.03;;;8.30;99.90;;;;;;5075839;28;20855;-69
2021/11/15 10:44:33;;;;;;;42.13;29.43;;;8.10;99.90;;;;;;5050816;28;20468;-70
2021/11/15 10:47:01;;;;;;;44.83;29.67;;;8.10;99.90;;;;;;5057330;28;21045;-70
2021/11/15 10:49:29;;;;;;;33.83;27.83;;;8.00;99.90;;;;;;5030067;28;20487;-69
2021/11/15 10:51:59;;;;;;;39.17;29.00;;;8.00;99.90;;;;;;5055286;28;20499;-70
2021/11/15 10:54:36;;;;;;;33.50;27.67;;;8.00;99.90;;;;;;5058865;28;20461;-69
2021/11/15 10:57:35;;;;;;;35.30;27.23;;;8.10;99.90;;;;;;5052855;28;20462;-69
2021/11/15 11:00:35;;;;;;;30.97;26.37;;;8.10;99.90;;;;;;4972791;28;20478;-69
2021/11/15 11:03:17;;;;;;;32.20;26.40;;;8.00;99.90;;;;;;5055016;28;20497;-72
2021/11/15 11:05:46;;;;;;;29.57;24.90;;;8.10;99.90;;;;;;5050018;28;20847;-70
2021/11/15 11:08:20;;;;;;;31.30;26.03;;;8.00;99.90;;;;;;5059790;28;20461;-70
2021/11/15 11:10:58;;;;;;;31.90;26.27;;;8.10;99.90;;;;;;5060638;28;20556;-70
2021/11/15 11:13:31;;;;;;;31.03;24.90;;;8.20;99.90;;;;;;5057301;28;20871;-72
2021/11/15 11:15:58;;;;;;;31.27;26.30;;;8.20;99.90;;;;;;5058587;28;20470;-70
2021/11/15 11:18:37;;;;;;;29.07;25.87;;;8.20;99.90;;;;;;5052761;28;20485;-70
2021/11/15 11:26:56;;;;;;;32.73;26.50;;;8.00;99.90;;;;;;5051557;28;20501;-72
2021/11/15 11:29:31;;;;;;;28.00;24.90;;;8.10;99.90;;;;;;5054037;28;20467;-70
2021/11/15 11:32:01;;;;;;;38.63;28.30;;;7.90;99.90;;;;;;5058738;28;20504;-71
2021/11/15 11:34:29;;;;;;;35.97;26.83;;;8.00;99.90;;;;;;5053592;28;20517;-70
2021/11/15 11:36:57;;;;;;;31.57;26.33;;;7.80;99.90;;;;;;5053237;28;20833;-72
2021/11/15 11:39:26;;;;;;;29.10;24.70;;;8.00;99.90;;;;;;5054588;28;20483;-69
2021/11/15 11:41:58;;;;;;;29.80;25.97;;;8.00;99.90;;;;;;5052875;28;20876;-71
2021/11/15 11:44:26;;;;;;;29.80;25.53;;;8.00;99.90;;;;;;5058915;28;20901;-70
2021/11/15 11:46:54;;;;;;;35.80;27.50;;;8.10;99.90;;;;;;5059664;28;20460;-70
2021/11/15 11:49:25;;;;;;;34.47;26.27;;;8.20;99.90;;;;;;5052134;28;20482;-70
2021/11/15 11:51:58;;;;;;;33.47;27.47;;;8.00;99.90;;;;;;5051537;28;20467;-71
2021/11/15 11:54:28;;;;;;;38.10;27.17;;;8.10;99.90;;;;;;5056046;28;20467;-70
2021/11/15 11:57:01;;;;;;;35.80;28.20;;;8.20;99.90;;;;;;5056479;28;20460;-71
2021/11/15 11:59:29;;;;;;;34.30;27.37;;;8.30;99.90;;;;;;5055897;28;20486;-70
2021/11/15 12:02:00;;;;;;;31.03;26.77;;;8.40;99.90;;;;;;5052502;28;21069;-71
2021/11/15 12:04:27;;;;;;;33.60;28.67;;;8.40;99.90;;;;;;5054522;28;20460;-70
2021/11/15 12:06:55;;;;;;;32.43;27.20;;;8.40;99.90;;;;;;5059065;28;20496;-70
2021/11/15 12:09:23;;;;;;;33.90;26.97;;;8.50;99.90;;;;;;5055286;28;20476;-70
2021/11/15 12:12:01;;;;;;;30.00;26.60;;;8.60;99.90;;;;;;5054138;28;20469;-70
2021/11/15 12:14:33;;;;;;;29.93;26.53;;;8.60;99.90;;;;;;5054516;28;20972;-70
2021/11/15 12:17:05;;;;;;;30.23;27.00;;;8.50;99.90;;;;;;5051788;28;20965;-72
2021/11/15 12:20:05;;;;;;;31.20;26.53;;;8.50;99.90;;;;;;5057234;28;20499;-72
2021/11/15 12:22:59;;;;;;;32.07;26.43;;;8.50;99.90;;;;;;5051088;28;20459;-70
2021/11/15 12:25:28;;;;;;;29.60;25.90;;;8.40;99.90;;;;;;5040131;28;20559;-70
2021/11/15 12:27:58;;;;;;;32.53;26.20;;;8.30;99.90;;;;;;5052766;28;21074;-73
2021/11/15 12:30:28;;;;;;;35.60;27.33;;;8.40;99.90;;;;;;5059631;28;20466;-69
2021/11/15 12:33:26;;;;;;;31.47;25.90;;;8.30;99.90;;;;;;5055247;28;20470;-69
2021/11/15 12:36:00;;;;;;;30.20;26.10;;;8.30;99.90;;;;;;5050003;28;20493;-72
2021/11/15 12:38:35;;;;;;;32.00;27.30;;;8.20;99.90;;;;;;5056498;28;20484;-70
2021/11/15 12:41:04;;;;;;;30.60;27.30;;;8.40;99.90;;;;;;5059818;28;20468;-71
2021/11/15 12:43:31;;;;;;;34.50;27.47;;;8.40;99.90;;;;;;5062079;28;21080;-73
2021/11/15 12:46:10;;;;;;;34.70;28.63;;;8.20;99.90;;;;;;5059598;28;20463;-70
2021/11/15 12:48:40;;;;;;;29.67;26.23;;;8.20;99.90;;;;;;5050318;28;20459;-71
2021/11/15 12:51:12;;;;;;;31.13;27.60;;;8.20;99.90;;;;;;5053944;28;20550;-71